Time;durP1;ratioP1;P1;durP2;ratioP2;P2;SDS_P1;SDS_P2;PMS_P1;PMS_P2;Temp;Humidity;BMP_temperature;BMP_pressure;BME280_temperature;BME280_humidity;BME280_pressure;Samples;Min_cycle;Max_cycle;Signal;HPM_P1;HPM_P2
2023/05/15 00:01:47;;;;;;;;;;;12.20;99.90;;;;;;4950612;28;20166;-77
2023/05/15 00:04:17;;;;;;;;;;;12.20;99.90;;;;;;4946982;28;19926;-77
2023/05/15 00:06:44;;;;;;;;;;;12.20;99.90;;;;;;4948870;28;20009;-77
2023/05/15 00:09:12;;;;;;;;;;;12.20;99.90;;;;;;4951012;28;19970;-77
2023/05/15 00:11:40;;;;;;;;;;;12.20;99.90;;;;;;4947729;28;20025;-76
2023/05/15 00:14:07;;;;;;;;;;;12.10;99.90;;;;;;4951376;28;19930;-77
2023/05/15 00:16:37;;;;;;;;;;;12.10;99.90;;;;;;4951871;28;20002;-77
2023/05/15 00:19:06;;;;;;;;;;;12.10;99.90;;;;;;4949211;28;19985;-77
2023/05/15 00:21:33;;;;;;;;;;;12.10;99.90;;;;;;4943321;28;20365;-77
2023/05/15 00:24:00;;;;;;;;;;;12.10;99.90;;;;;;4944833;28;19930;-77
2023/05/15 00:26:26;;;;;;;;;;;12.10;99.90;;;;;;4949971;28;19973;-78
2023/05/15 00:28:53;;;;;;;;;;;12.00;99.90;;;;;;4947971;28;19931;-76
2023/05/15 00:31:20;;;;;;;;;;;12.00;99.90;;;;;;4950413;28;19931;-77
2023/05/15 00:33:48;;;;;;;;;;;12.00;99.90;;;;;;4949268;29;19931;-77
2023/05/15 00:36:20;;;;;;;;;;;12.00;99.90;;;;;;4950256;28;19947;-77
2023/05/15 00:38:47;;;;;;;;;;;12.00;99.90;;;;;;4943648;28;19961;-77
2023/05/15 00:41:14;;;;;;;;;;;12.00;99.90;;;;;;4948711;28;20014;-76
2023/05/15 00:43:41;;;;;;;;;;;12.00;99.90;;;;;;4960291;28;20401;-78
2023/05/15 00:46:09;;;;;;;;;;;12.00;99.90;;;;;;4967913;28;19926;-77
2023/05/15 00:48:37;;;;;;;;;;;12.00;99.90;;;;;;4945775;28;21990;-77
2023/05/15 00:51:04;;;;;;;;;;;11.90;99.90;;;;;;4949522;28;20304;-77
2023/05/15 00:53:32;;;;;;;;;;;11.90;99.90;;;;;;4943004;28;19937;-77
2023/05/15 00:55:59;;;;;;;;;;;11.90;99.90;;;;;;4943263;28;20340;-77
2023/05/15 00:58:27;;;;;;;;;;;11.90;99.90;;;;;;4943759;28;19993;-77
2023/05/15 01:00:53;;;;;;;;;;;11.90;99.90;;;;;;4946777;28;20017;-77
2023/05/15 01:03:20;;;;;;;;;;;11.90;99.90;;;;;;4944272;28;20345;-77
2023/05/15 01:05:47;;;;;;;;;;;11.90;99.90;;;;;;4958941;28;19949;-77
2023/05/15 01:08:16;;;;;;;;;;;11.90;99.90;;;;;;4949052;28;20136;-77
2023/05/15 01:10:45;;;;;;;;;;;11.90;99.90;;;;;;4940869;28;19934;-77
2023/05/15 01:13:13;;;;;;;;;;;11.80;99.90;;;;;;4957243;28;20056;-77
2023/05/15 01:15:41;;;;;;;;;;;11.80;99.90;;;;;;4948499;28;19933;-77
2023/05/15 01:18:09;;;;;;;;;;;11.80;99.90;;;;;;4946760;28;19965;-77
2023/05/15 01:20:43;;;;;;;;;;;11.80;99.90;;;;;;4944520;28;19961;-77
2023/05/15 01:23:12;;;;;;;;;;;11.80;99.90;;;;;;4943759;28;20366;-77
2023/05/15 01:26:02;;;;;;;;;;;11.80;99.90;;;;;;4942096;28;19939;-77
2023/05/15 01:28:32;;;;;;;;;;;11.70;99.90;;;;;;4941992;28;20325;-77
2023/05/15 01:31:03;;;;;;;;;;;11.70;99.90;;;;;;4942193;28;19993;-77
2023/05/15 01:33:34;;;;;;;;;;;11.70;99.90;;;;;;4946201;28;19990;-77
2023/05/15 01:36:04;;;;;;;;;;;11.70;99.90;;;;;;4946327;28;19942;-77
2023/05/15 01:38:34;;;;;;;;;;;11.70;99.90;;;;;;4951800;28;20309;-77
2023/05/15 01:41:03;;;;;;;;;;;11.70;99.90;;;;;;4945253;28;20017;-77
2023/05/15 01:43:32;;;;;;;;;;;11.70;99.90;;;;;;4944919;28;20294;-77
2023/05/15 01:45:59;;;;;;;;;;;11.70;99.90;;;;;;4949048;28;19933;-77
2023/05/15 01:48:27;;;;;;;;;;;11.70;99.90;;;;;;4942487;28;20386;-76
2023/05/15 01:50:57;;;;;;;;;;;11.70;99.90;;;;;;4945077;28;19974;-77
2023/05/15 01:53:27;;;;;;;;;;;11.70;99.90;;;;;;4943176;28;19935;-76
2023/05/15 01:55:56;;;;;;;;;;;11.70;99.90;;;;;;4941486;28;19931;-77
2023/05/15 01:58:25;;;;;;;;;;;11.70;99.90;;;;;;4947582;28;20050;-77
2023/05/15 02:00:53;;;;;;;;;;;11.70;99.90;;;;;;4947725;28;19934;-77
2023/05/15 02:03:20;;;;;;;;;;;11.70;99.90;;;;;;4949117;28;19958;-77
2023/05/15 02:05:48;;;;;;;;;;;11.70;99.90;;;;;;4943989;28;19965;-77
2023/05/15 02:08:15;;;;;;;;;;;11.60;99.90;;;;;;4947507;28;20475;-77
2023/05/15 02:10:43;;;;;;;;;;;11.60;99.90;;;;;;4944570;28;19937;-77
2023/05/15 02:13:11;;;;;;;;;;;11.70;99.90;;;;;;4943768;28;19931;-76
2023/05/15 02:15:38;;;;;;;;;;;11.60;99.90;;;;;;4942200;28;19973;-77
2023/05/15 02:18:10;;;;;;;;;;;11.60;99.90;;;;;;4946945;28;20021;-77
2023/05/15 02:20:36;;;;;;;;;;;11.60;99.90;;;;;;4946440;28;20017;-77
2023/05/15 02:23:03;;;;;;;;;;;11.60;99.90;;;;;;4946048;28;20650;-77
2023/05/15 02:25:34;;;;;;;;;;;11.60;99.90;;;;;;4949125;28;19931;-76
2023/05/15 02:28:01;;;;;;;;;;;11.60;99.90;;;;;;4944020;28;19935;-77
2023/05/15 02:30:34;;;;;;;;;;;11.60;99.90;;;;;;4943567;28;19965;-77
2023/05/15 02:33:05;;;;;;;;;;;11.60;99.90;;;;;;4945256;28;20017;-77
2023/05/15 02:35:37;;;;;;;;;;;11.60;99.90;;;;;;4945207;28;19934;-77
2023/05/15 02:38:07;;;;;;;;;;;11.60;99.90;;;;;;4943038;28;19989;-77
2023/05/15 02:40:36;;;;;;;;;;;11.60;99.90;;;;;;4949208;28;19957;-77
2023/05/15 02:43:05;;;;;;;;;;;11.50;99.90;;;;;;4948923;28;19927;-77
2023/05/15 02:45:33;;;;;;;;;;;11.50;99.90;;;;;;4946430;28;19993;-77
2023/05/15 02:48:01;;;;;;;;;;;11.50;99.90;;;;;;4963330;28;20373;-77
2023/05/15 02:50:28;;;;;;;;;;;11.50;99.90;;;;;;4946543;28;19938;-77
2023/05/15 02:53:02;;;;;;;;;;;11.50;99.90;;;;;;4946617;28;19934;-77
2023/05/15 02:55:29;;;;;;;;;;;11.50;99.90;;;;;;4944742;28;19940;-77
2023/05/15 02:57:56;;;;;;;;;;;11.50;99.90;;;;;;4945945;28;20774;-76
2023/05/15 03:00:23;;;;;;;;;;;11.50;99.90;;;;;;4949894;28;19973;-77
2023/05/15 03:02:50;;;;;;;;;;;11.50;99.90;;;;;;4944737;28;19934;-77
2023/05/15 03:05:17;;;;;;;;;;;11.50;99.90;;;;;;4947155;28;19958;-77
2023/05/15 03:07:45;;;;;;;;;;;11.50;99.90;;;;;;4944239;28;19930;-77
2023/05/15 03:10:13;;;;;;;;;;;11.50;99.90;;;;;;4944263;28;19935;-77
2023/05/15 03:12:40;;;;;;;;;;;11.50;99.90;;;;;;4965530;28;19993;-77
2023/05/15 03:15:07;;;;;;;;;;;11.50;99.90;;;;;;4947459;28;20365;-77
2023/05/15 03:17:34;;;;;;;;;;;11.50;99.90;;;;;;4945810;28;19934;-77
2023/05/15 03:20:01;;;;;;;;;;;11.40;99.90;;;;;;4945150;28;20368;-77
2023/05/15 03:22:28;;;;;;;;;;;11.40;99.90;;;;;;4944019;28;20411;-79
2023/05/15 03:24:54;;;;;;;;;;;11.40;99.90;;;;;;4945997;28;19945;-77
2023/05/15 03:27:23;;;;;;;;;;;11.40;99.90;;;;;;4948580;28;19927;-77
2023/05/15 03:29:50;;;;;;;;;;;11.40;99.90;;;;;;4944669;28;20029;-76
2023/05/15 03:32:19;;;;;;;;;;;11.40;99.90;;;;;;4950741;28;19926;-76
2023/05/15 03:34:46;;;;;;;;;;;11.40;99.90;;;;;;4950480;28;19927;-76
2023/05/15 03:37:12;;;;;;;;;;;11.40;99.90;;;;;;4941595;28;19934;-77
2023/05/15 03:39:39;;;;;;;;;;;11.40;99.90;;;;;;4944609;28;20586;-76
2023/05/15 03:42:07;;;;;;;;;;;11.40;99.90;;;;;;4947257;28;19934;-77
2023/05/15 03:44:35;;;;;;;;;;;11.30;99.90;;;;;;4949525;28;19973;-77
2023/05/15 03:47:02;;;;;;;;;;;11.30;99.90;;;;;;4946889;28;19931;-77
2023/05/15 03:49:29;;;;;;;;;;;11.30;99.90;;;;;;4944673;28;19934;-76
2023/05/15 03:51:56;;;;;;;;;;;11.30;99.90;;;;;;4946992;28;19962;-76
2023/05/15 03:54:23;;;;;;;;;;;11.30;99.90;;;;;;4945126;28;19930;-76
2023/05/15 03:56:52;;;;;;;;;;;11.30;99.90;;;;;;4947315;28;19926;-77
2023/05/15 03:59:19;;;;;;;;;;;11.30;99.90;;;;;;4950318;28;19946;-78
2023/05/15 04:01:47;;;;;;;;;;;11.30;99.90;;;;;;4950599;28;19966;-77
2023/05/15 04:04:14;;;;;;;;;;;11.30;99.90;;;;;;4945019;28;19926;-77
2023/05/15 04:06:41;;;;;;;;;;;11.20;99.90;;;;;;4958274;28;19926;-77
2023/05/15 04:09:09;;;;;;;;;;;11.30;99.90;;;;;;4946657;29;20293;-77
2023/05/15 04:11:36;;;;;;;;;;;11.20;99.90;;;;;;4952444;29;20009;-77
2023/05/15 04:14:03;;;;;;;;;;;11.20;99.90;;;;;;4952146;28;19931;-77
2023/05/15 04:16:30;;;;;;;;;;;11.20;99.90;;;;;;4946595;29;19985;-77
2023/05/15 04:18:58;;;;;;;;;;;11.20;99.90;;;;;;4951038;28;19970;-77
2023/05/15 04:21:25;;;;;;;;;;;11.20;99.90;;;;;;4945799;28;19927;-76
2023/05/15 04:23:53;;;;;;;;;;;11.20;99.90;;;;;;4959301;28;19934;-77
2023/05/15 04:26:21;;;;;;;;;;;11.20;99.90;;;;;;4948522;28;19949;-77
2023/05/15 04:28:48;;;;;;;;;;;11.20;99.90;;;;;;4950018;28;19989;-77
2023/05/15 04:31:15;;;;;;;;;;;11.20;99.90;;;;;;4946706;28;19991;-77
2023/05/15 04:33:42;;;;;;;;;;;11.10;99.90;;;;;;4942356;28;19942;-77
2023/05/15 04:36:12;;;;;;;;;;;11.10;99.90;;;;;;4946123;28;20025;-76
2023/05/15 04:38:40;;;;;;;;;;;11.10;99.90;;;;;;4945401;28;19927;-77
2023/05/15 04:41:06;;;;;;;;;;;11.10;99.90;;;;;;4943420;28;19944;-77
2023/05/15 04:43:34;;;;;;;;;;;11.10;99.90;;;;;;4946922;28;20456;-76
2023/05/15 04:46:01;;;;;;;;;;;11.10;99.90;;;;;;4945287;28;19934;-77
2023/05/15 04:48:29;;;;;;;;;;;11.10;99.90;;;;;;4946136;28;19927;-76
2023/05/15 04:50:57;;;;;;;;;;;11.10;99.90;;;;;;4943439;28;19978;-77
2023/05/15 04:53:25;;;;;;;;;;;11.10;99.90;;;;;;4950600;28;20324;-77
2023/05/15 04:55:52;;;;;;;;;;;11.10;99.90;;;;;;4961934;28;20766;-77
2023/05/15 04:58:19;;;;;;;;;;;11.10;99.90;;;;;;4947129;28;20025;-78
2023/05/15 05:00:46;;;;;;;;;;;11.10;99.90;;;;;;4952122;28;19977;-78
2023/05/15 05:03:13;;;;;;;;;;;11.10;99.90;;;;;;4954601;28;19998;-78
2023/05/15 05:05:39;;;;;;;;;;;11.00;99.90;;;;;;4956011;28;19926;-80
2023/05/15 05:08:06;;;;;;;;;;;11.10;99.90;;;;;;4949741;28;19978;-78
2023/05/15 05:10:34;;;;;;;;;;;11.00;99.90;;;;;;4949063;28;19926;-77
2023/05/15 05:13:01;;;;;;;;;;;11.00;99.90;;;;;;4948083;28;19934;-76
2023/05/15 05:15:28;;;;;;;;;;;11.00;99.90;;;;;;4952489;28;19961;-77
2023/05/15 05:17:55;;;;;;;;;;;11.00;99.90;;;;;;4950126;28;20534;-78
2023/05/15 05:20:23;;;;;;;;;;;11.00;99.90;;;;;;4949469;28;19931;-77
2023/05/15 05:22:52;;;;;;;;;;;11.00;99.90;;;;;;4949058;28;19950;-77
2023/05/15 05:25:19;;;;;;;;;;;11.00;99.90;;;;;;4948475;28;20009;-77
2023/05/15 05:27:47;;;;;;;;;;;11.00;99.90;;;;;;4948148;28;19937;-77
2023/05/15 05:30:15;;;;;;;;;;;11.00;99.90;;;;;;4952339;28;19926;-77
2023/05/15 05:32:42;;;;;;;;;;;11.00;99.90;;;;;;4945678;28;19931;-77
2023/05/15 05:35:10;;;;;;;;;;;11.00;99.90;;;;;;4944486;28;20625;-77
2023/05/15 05:37:37;;;;;;;;;;;11.00;99.90;;;;;;4949054;28;19931;-77
2023/05/15 05:40:06;;;;;;;;;;;11.00;99.90;;;;;;4948471;28;20059;-77
2023/05/15 05:42:34;;;;;;;;;;;11.00;99.90;;;;;;4950598;28;20504;-77
2023/05/15 05:45:05;;;;;;;;;;;11.00;99.90;;;;;;4944584;28;20009;-77
2023/05/15 05:47:32;;;;;;;;;;;11.00;99.90;;;;;;4947965;28;19962;-77
2023/05/15 05:49:59;;;;;;;;;;;11.00;99.90;;;;;;4945863;28;19927;-78
2023/05/15 05:52:27;;;;;;;;;;;10.90;99.90;;;;;;4952681;28;20018;-78
2023/05/15 05:54:54;;;;;;;;;;;11.00;99.90;;;;;;4954554;28;20335;-77
2023/05/15 05:57:22;;;;;;;;;;;11.00;99.90;;;;;;4950452;28;19930;-77
2023/05/15 05:59:49;;;;;;;;;;;11.00;99.90;;;;;;4955981;29;19962;-77
2023/05/15 06:02:17;;;;;;;;;;;11.00;99.90;;;;;;4953396;28;20533;-79
2023/05/15 06:04:44;;;;;;;;;;;11.00;99.90;;;;;;4952690;28;19926;-77
2023/05/15 06:07:11;;;;;;;;;;;10.90;99.90;;;;;;4952512;28;20500;-77
2023/05/15 06:09:38;;;;;;;;;;;10.90;99.90;;;;;;4952662;28;20253;-78
2023/05/15 06:12:07;;;;;;;;;;;10.90;99.90;;;;;;4950359;29;19981;-77
2023/05/15 06:14:33;;;;;;;;;;;10.90;99.90;;;;;;4955686;28;19949;-78
2023/05/15 06:17:00;;;;;;;;;;;10.90;99.90;;;;;;4952975;28;19926;-77
2023/05/15 06:19:29;;;;;;;;;;;10.90;99.90;;;;;;4953082;29;19930;-78
2023/05/15 06:21:56;;;;;;;;;;;11.00;99.90;;;;;;4953212;28;20704;-78
2023/05/15 06:24:23;;;;;;;;;;;10.90;99.90;;;;;;4949728;28;19934;-77
2023/05/15 06:26:50;;;;;;;;;;;11.00;99.90;;;;;;4954712;28;20066;-78
2023/05/15 06:29:17;;;;;;;;;;;10.90;99.90;;;;;;4954582;28;20301;-78
2023/05/15 06:31:44;;;;;;;;;;;11.00;99.90;;;;;;4967779;28;19934;-78
2023/05/15 06:34:10;;;;;;;;;;;11.00;99.90;;;;;;4954239;28;19950;-78
2023/05/15 06:36:39;;;;;;;;;;;10.90;99.90;;;;;;4953247;28;20021;-78
2023/05/15 06:39:05;;;;;;;;;;;11.00;99.90;;;;;;4944865;28;19933;-78
2023/05/15 06:41:33;;;;;;;;;;;11.00;99.90;;;;;;4954004;29;19978;-77
2023/05/15 06:43:59;;;;;;;;;;;11.00;99.90;;;;;;4954344;28;19927;-77
2023/05/15 06:46:26;;;;;;;;;;;11.00;99.90;;;;;;4952786;28;19931;-77
2023/05/15 06:48:53;;;;;;;;;;;11.10;99.90;;;;;;4949937;28;20824;-78
2023/05/15 06:51:20;;;;;;;;;;;11.10;99.90;;;;;;4952488;28;19974;-78
2023/05/15 06:53:48;;;;;;;;;;;11.10;99.90;;;;;;4952656;28;20412;-78
2023/05/15 06:56:18;;;;;;;;;;;11.10;99.90;;;;;;4953927;28;19934;-77
2023/05/15 06:58:45;;;;;;;;;;;11.10;99.90;;;;;;4949648;29;20298;-78
2023/05/15 07:01:12;;;;;;;;;;;11.10;99.90;;;;;;4956174;29;19977;-78
2023/05/15 07:03:41;;;;;;;;;;;11.20;99.90;;;;;;4956642;28;19934;-78
2023/05/15 07:06:08;;;;;;;;;;;11.20;99.90;;;;;;4953490;28;19954;-78
2023/05/15 07:08:35;;;;;;;;;;;11.20;99.90;;;;;;4957272;28;19984;-78
2023/05/15 07:11:04;;;;;;;;;;;11.20;99.90;;;;;;4954208;28;20086;-78
2023/05/15 07:13:30;;;;;;;;;;;11.20;99.90;;;;;;4955298;28;19944;-78
2023/05/15 07:15:57;;;;;;;;;;;11.30;99.90;;;;;;4952786;28;19927;-78
2023/05/15 07:18:24;;;;;;;;;;;11.20;99.90;;;;;;4969008;28;19926;-78
2023/05/15 07:20:52;;;;;;;;;;;11.30;99.90;;;;;;4952914;28;19934;-77
2023/05/15 07:23:19;;;;;;;;;;;11.30;99.90;;;;;;4952251;28;20293;-77
2023/05/15 07:25:46;;;;;;;;;;;11.40;99.90;;;;;;4958832;28;21385;-78
2023/05/15 07:28:14;;;;;;;;;;;11.40;99.90;;;;;;4953108;28;19927;-78
2023/05/15 07:30:41;;;;;;;;;;;11.40;99.90;;;;;;4955938;28;19930;-77
2023/05/15 07:33:08;;;;;;;;;;;11.40;99.90;;;;;;4957417;28;20286;-78
2023/05/15 07:35:35;;;;;;;;;;;11.50;99.90;;;;;;4957878;28;19926;-77
2023/05/15 07:38:02;;;;;;;;;;;11.50;99.90;;;;;;4950065;29;20393;-78
2023/05/15 07:40:28;;;;;;;;;;;11.50;99.90;;;;;;4957054;28;19927;-78
2023/05/15 07:42:55;;;;;;;;;;;11.50;99.90;;;;;;4959411;28;20316;-77
2023/05/15 07:45:23;;;;;;;;;;;11.50;99.90;;;;;;4955062;28;19932;-77
2023/05/15 07:47:51;;;;;;;;;;;11.50;99.90;;;;;;4952763;28;19926;-79
2023/05/15 07:50:18;;;;;;;;;;;11.60;99.90;;;;;;4955112;28;19926;-78
2023/05/15 07:52:44;;;;;;;;;;;11.60;99.90;;;;;;4954768;28;19961;-77
2023/05/15 07:55:11;;;;;;;;;;;11.60;99.90;;;;;;4957964;28;19927;-78
2023/05/15 07:57:40;;;;;;;;;;;11.60;99.90;;;;;;4954291;28;19940;-78
2023/05/15 08:00:11;;;;;;;;;;;11.60;99.90;;;;;;4958276;28;19935;-78
2023/05/15 08:02:40;;;;;;;;;;;11.70;99.90;;;;;;4957926;29;19926;-78
2023/05/15 08:05:07;;;;;;;;;;;11.70;99.90;;;;;;4957613;28;20456;-78
2023/05/15 08:07:36;;;;;;;;;;;11.70;99.90;;;;;;4954128;29;19930;-78
2023/05/15 08:10:04;;;;;;;;;;;11.70;99.90;;;;;;4956568;28;19930;-78
2023/05/15 08:12:31;;;;;;;;;;;11.70;99.90;;;;;;4958736;28;19941;-78
2023/05/15 08:14:58;;;;;;;;;;;11.70;99.90;;;;;;4954093;29;19934;-78
2023/05/15 08:17:25;;;;;;;;;;;11.80;99.90;;;;;;4956194;29;20400;-77
2023/05/15 08:19:53;;;;;;;;;;;11.80;99.90;;;;;;4949545;28;19982;-78
2023/05/15 08:22:20;;;;;;;;;;;11.90;99.90;;;;;;4957672;28;19973;-77
2023/05/15 08:24:47;;;;;;;;;;;11.90;99.90;;;;;;4957404;28;19934;-78
2023/05/15 08:27:15;;;;;;;;;;;11.90;99.90;;;;;;4957767;28;19926;-78
2023/05/15 08:29:43;;;;;;;;;;;11.90;99.90;;;;;;4955914;29;19975;-78
2023/05/15 08:32:10;;;;;;;;;;;11.90;99.90;;;;;;4958220;28;19954;-78
2023/05/15 08:34:37;;;;;;;;;;;11.90;99.90;;;;;;4958951;28;19927;-78
2023/05/15 08:37:06;;;;;;;;;;;12.00;99.90;;;;;;4954296;28;19970;-77
2023/05/15 08:39:33;;;;;;;;;;;12.00;99.90;;;;;;4954339;29;20320;-77
2023/05/15 08:42:03;;;;;;;;;;;12.00;99.90;;;;;;4957749;28;19926;-77
2023/05/15 08:44:30;;;;;;;;;;;12.00;99.90;;;;;;4958195;28;19957;-78
2023/05/15 08:46:57;;;;;;;;;;;12.00;99.90;;;;;;4957842;28;20004;-78
2023/05/15 08:49:31;;;;;;;;;;;12.00;99.90;;;;;;4960718;28;19935;-78
2023/05/15 08:51:58;;;;;;;;;;;12.00;99.90;;;;;;4969241;28;19954;-78
2023/05/15 08:54:26;;;;;;;;;;;12.00;99.90;;;;;;4954796;28;20017;-77
2023/05/15 08:56:53;;;;;;;;;;;12.10;99.90;;;;;;4947381;28;19933;-78
2023/05/15 08:59:20;;;;;;;;;;;12.10;99.90;;;;;;4954972;28;19927;-78
2023/05/15 09:01:48;;;;;;;;;;;12.10;99.90;;;;;;4954816;29;20436;-78
2023/05/15 09:04:15;;;;;;;;;;;12.10;99.90;;;;;;4953584;28;20654;-78
2023/05/15 09:06:43;;;;;;;;;;;12.10;99.90;;;;;;4954847;29;20432;-78
2023/05/15 09:09:12;;;;;;;;;;;12.20;99.90;;;;;;4953582;28;19993;-78
2023/05/15 09:11:43;;;;;;;;;;;12.20;99.90;;;;;;4955126;28;20372;-78
2023/05/15 09:14:11;;;;;;;;;;;12.20;99.90;;;;;;4950821;28;19926;-78
2023/05/15 09:16:40;;;;;;;;;;;12.20;99.90;;;;;;4951508;28;19934;-78
2023/05/15 09:19:07;;;;;;;;;;;12.20;99.90;;;;;;4953605;28;20292;-78
2023/05/15 09:21:34;;;;;;;;;;;12.30;99.90;;;;;;4948179;28;19930;-78
2023/05/15 09:24:17;;;;;;;;;;;12.30;99.90;;;;;;4952952;28;20026;-78
2023/05/15 09:26:46;;;;;;;;;;;12.30;99.90;;;;;;4952818;28;19926;-78
2023/05/15 09:29:16;;;;;;;;;;;12.30;99.90;;;;;;4950960;28;19930;-78
2023/05/15 09:31:42;;;;;;;;;;;12.40;99.90;;;;;;4955369;28;19935;-78
2023/05/15 09:34:10;;;;;;;;;;;12.40;99.90;;;;;;4952615;28;19934;-78
2023/05/15 09:36:43;;;;;;;;;;;12.40;99.90;;;;;;4955116;29;19965;-78
2023/05/15 09:39:10;;;;;;;;;;;12.40;99.90;;;;;;4945920;29;20869;-76
2023/05/15 09:41:41;;;;;;;;;;;12.40;99.90;;;;;;4948236;28;19934;-77
2023/05/15 09:44:17;;;;;;;;;;;12.40;99.90;;;;;;4950780;29;19928;-79
2023/05/15 09:46:44;;;;;;;;;;;12.50;99.90;;;;;;4953090;28;19931;-77
2023/05/15 09:49:11;;;;;;;;;;;12.50;99.90;;;;;;4951273;28;19955;-79
2023/05/15 09:51:38;;;;;;;;;;;12.40;99.90;;;;;;4956004;28;19957;-78
2023/05/15 09:54:05;;;;;;;;;;;12.50;99.90;;;;;;4956917;28;20304;-79
2023/05/15 09:56:32;;;;;;;;;;;12.50;99.90;;;;;;4955776;28;20021;-79
2023/05/15 09:58:59;;;;;;;;;;;12.50;99.90;;;;;;4957161;28;20058;-79
2023/05/15 10:01:31;;;;;;;;;;;12.60;99.90;;;;;;4950052;28;19974;-79
2023/05/15 10:03:59;;;;;;;;;;;12.60;99.90;;;;;;4954527;29;19926;-79
2023/05/15 10:06:26;;;;;;;;;;;12.60;99.90;;;;;;4955093;28;20405;-79
2023/05/15 10:08:54;;;;;;;;;;;12.60;99.90;;;;;;4952966;28;19927;-77
2023/05/15 10:11:21;;;;;;;;;;;12.60;99.90;;;;;;4949583;28;20070;-79
2023/05/15 10:13:48;;;;;;;;;;;12.60;99.90;;;;;;4955840;28;19993;-79
2023/05/15 10:16:15;;;;;;;;;;;12.60;99.90;;;;;;4952940;29;19974;-79
2023/05/15 10:18:44;;;;;;;;;;;12.70;99.90;;;;;;4956846;28;19990;-79
2023/05/15 10:21:12;;;;;;;;;;;12.70;99.90;;;;;;4955743;28;19958;-79
2023/05/15 10:23:41;;;;;;;;;;;12.70;99.90;;;;;;4956582;28;19990;-79
2023/05/15 10:26:11;;;;;;;;;;;12.70;99.90;;;;;;4957830;28;19965;-79
2023/05/15 10:28:41;;;;;;;;;;;12.70;99.90;;;;;;4955014;28;19993;-79
2023/05/15 10:31:09;;;;;;;;;;;12.70;99.90;;;;;;4955922;28;19933;-79
2023/05/15 10:33:37;;;;;;;;;;;12.70;99.90;;;;;;4957875;29;20723;-79
2023/05/15 10:36:06;;;;;;;;;;;12.70;99.90;;;;;;4958157;28;20017;-79
2023/05/15 10:38:34;;;;;;;;;;;12.70;99.90;;;;;;4953825;28;19997;-79
2023/05/15 10:41:03;;;;;;;;;;;12.70;99.90;;;;;;4957967;28;19927;-79
2023/05/15 10:43:30;;;;;;;;;;;12.80;99.90;;;;;;4957060;28;19927;-79
2023/05/15 10:45:58;;;;;;;;;;;12.70;99.90;;;;;;4955259;28;20203;-79
2023/05/15 10:48:25;;;;;;;;;;;12.80;99.90;;;;;;4957046;28;19935;-79
2023/05/15 10:50:52;;;;;;;;;;;12.80;99.90;;;;;;4955253;29;19926;-79
2023/05/15 10:53:26;;;;;;;;;;;12.80;99.90;;;;;;4951825;28;19930;-79
2023/05/15 10:55:54;;;;;;;;;;;12.90;99.90;;;;;;4954967;28;19927;-79
2023/05/15 10:58:23;;;;;;;;;;;12.90;99.90;;;;;;4960643;28;19926;-79
2023/05/15 11:00:50;;;;;;;;;;;12.90;99.90;;;;;;4958945;28;19930;-79
2023/05/15 11:03:35;;;;;;;;;;;12.90;99.90;;;;;;4957410;28;19965;-79
2023/05/15 11:06:10;;;;;;;;;;;12.90;99.90;;;;;;4957931;28;20565;-79
2023/05/15 11:08:39;;;;;;;;;;;13.00;99.90;;;;;;4959788;28;19935;-79
2023/05/15 11:11:08;;;;;;;;;;;12.90;99.90;;;;;;4959437;28;20101;-79
2023/05/15 11:14:00;;;;;;;;;;;12.90;99.90;;;;;;4956815;28;19937;-79
2023/05/15 11:16:46;;;;;;;;;;;13.00;99.90;;;;;;4958454;29;19993;-79
2023/05/15 11:19:23;;;;;;;;;;;13.00;99.90;;;;;;4953447;29;19927;-79
2023/05/15 11:21:56;;;;;;;;;;;13.10;99.90;;;;;;4957684;28;20419;-79
2023/05/15 11:24:24;;;;;;;;;;;;;;;;;;4958016;28;19927;-79
2023/05/15 11:26:58;;;;;;;;;;;13.20;99.90;;;;;;4957928;28;19935;-79
2023/05/15 11:29:25;;;;;;;;;;;13.30;99.90;;;;;;4977371;28;19972;-79
2023/05/15 11:31:52;;;;;;;;;;;13.40;99.90;;;;;;4958495;28;20025;-79
2023/05/15 11:34:30;;;;;;;;;;;13.30;99.90;;;;;;4952989;28;19931;-79
2023/05/15 11:36:58;;;;;;;;;;;13.40;99.90;;;;;;4957635;28;20283;-79
2023/05/15 11:39:26;;;;;;;;;;;13.40;99.90;;;;;;4956640;29;19934;-79
2023/05/15 11:41:56;;;;;;;;;;;13.40;99.90;;;;;;4958651;29;19926;-78
2023/05/15 11:44:24;;;;;;;;;;;13.40;99.90;;;;;;4955933;28;19927;-79
2023/05/15 11:46:51;;;;;;;;;;;13.50;99.90;;;;;;4956983;28;20416;-78
2023/05/15 11:49:19;;;;;;;;;;;13.50;99.90;;;;;;4959330;28;19927;-79
2023/05/15 11:51:48;;;;;;;;;;;13.50;99.90;;;;;;4971446;28;19945;-78
2023/05/15 11:54:15;;;;;;;;;;;13.50;99.90;;;;;;4960232;28;19949;-78
2023/05/15 11:56:43;;;;;;;;;;;13.50;99.90;;;;;;4957981;28;19945;-79
2023/05/15 11:59:15;;;;;;;;;;;13.50;99.90;;;;;;4956547;28;21849;-79
2023/05/15 12:01:44;;;;;;;;;;;13.50;99.90;;;;;;4958096;28;20396;-79
2023/05/15 12:04:14;;;;;;;;;;;13.50;99.90;;;;;;4956183;28;20378;-79
2023/05/15 12:06:46;;;;;;;;;;;13.50;99.90;;;;;;4954180;28;19936;-79
2023/05/15 12:09:15;;;;;;;;;;;13.50;99.90;;;;;;4967386;28;20008;-79
2023/05/15 12:11:48;;;;;;;;;;;13.50;99.90;;;;;;4958254;28;19973;-79
2023/05/15 12:14:17;;;;;;;;;;;13.50;99.90;;;;;;4957796;28;19930;-79
2023/05/15 12:16:48;;;;;;;;;;;13.50;99.90;;;;;;4957082;28;19930;-80
2023/05/15 12:19:17;;;;;;;;;;;13.50;99.90;;;;;;4951099;28;19934;-80
2023/05/15 12:21:46;;;;;;;;;;;13.50;99.90;;;;;;4955509;28;19954;-79
2023/05/15 12:24:20;;;;;;;;;;;13.50;99.90;;;;;;4958429;28;19930;-79
2023/05/15 12:26:47;;;;;;;;;;;13.50;99.90;;;;;;4957748;28;20008;-78
2023/05/15 12:29:14;;;;;;;;;;;13.50;99.90;;;;;;4956113;28;19927;-79
2023/05/15 12:31:43;;;;;;;;;;;13.50;99.90;;;;;;4955987;28;19933;-78
2023/05/15 12:34:10;;;;;;;;;;;13.50;99.90;;;;;;4959091;29;19942;-78
2023/05/15 12:36:40;;;;;;;;;;;13.50;99.90;;;;;;4956128;28;20003;-79
2023/05/15 12:39:07;;;;;;;;;;;13.50;99.90;;;;;;4957221;29;19930;-78
2023/05/15 12:41:36;;;;;;;;;;;13.50;99.90;;;;;;4973485;28;20405;-79
2023/05/15 12:44:04;;;;;;;;;;;13.50;99.90;;;;;;4950188;29;20329;-78
2023/05/15 12:46:31;;;;;;;;;;;13.50;99.90;;;;;;4961751;28;19927;-79
2023/05/15 12:48:59;;;;;;;;;;;13.50;99.90;;;;;;4957355;29;19938;-78
2023/05/15 12:51:28;;;;;;;;;;;13.50;99.90;;;;;;4955952;28;19934;-78
2023/05/15 12:53:57;;;;;;;;;;;13.50;99.90;;;;;;4954704;28;20312;-79
2023/05/15 12:56:25;;;;;;;;;;;13.50;99.90;;;;;;4957474;28;19933;-79
2023/05/15 12:58:53;;;;;;;;;;;13.50;99.90;;;;;;4956043;28;19934;-79
2023/05/15 13:01:21;;;;;;;;;;;13.50;99.90;;;;;;4954433;29;19934;-79
2023/05/15 13:03:50;;;;;;;;;;;13.50;99.90;;;;;;4954002;28;19934;-78
2023/05/15 13:06:22;;;;;;;;;;;13.50;99.90;;;;;;4957504;28;19939;-77
2023/05/15 13:08:49;;;;;;;;;;;13.50;99.90;;;;;;4953770;28;19933;-79
2023/05/15 13:11:19;;;;;;;;;;;13.60;99.90;;;;;;4953817;28;20081;-79
2023/05/15 13:13:49;;;;;;;;;;;13.50;99.90;;;;;;4970574;28;20199;-78
2023/05/15 13:16:19;;;;;;;;;;;13.50;99.90;;;;;;4957728;28;19915;-78
2023/05/15 13:18:46;;;;;;;;;;;13.60;99.90;;;;;;4952258;28;19926;-78
2023/05/15 13:21:16;;;;;;;;;;;13.50;99.90;;;;;;4957490;28;19933;-79
2023/05/15 13:23:45;;;;;;;;;;;13.60;99.90;;;;;;4956142;28;19986;-79
2023/05/15 13:26:12;;;;;;;;;;;13.60;99.90;;;;;;4959190;28;19934;-78
2023/05/15 13:28:39;;;;;;;;;;;13.60;99.90;;;;;;4951790;28;19927;-78
2023/05/15 13:31:06;;;;;;;;;;;13.60;99.90;;;;;;4958032;28;20041;-78
2023/05/15 13:33:34;;;;;;;;;;;13.60;99.90;;;;;;4956278;28;19927;-79
2023/05/15 13:36:02;;;;;;;;;;;13.60;99.90;;;;;;4953858;28;19927;-78
2023/05/15 13:38:30;;;;;;;;;;;13.60;99.90;;;;;;4972490;28;19968;-78
2023/05/15 13:40:58;;;;;;;;;;;13.60;99.90;;;;;;4955140;28;19954;-78
2023/05/15 13:43:26;;;;;;;;;;;13.60;99.90;;;;;;4955137;28;19993;-78
2023/05/15 13:45:56;;;;;;;;;;;13.60;99.90;;;;;;4958620;28;19931;-78
2023/05/15 13:48:24;;;;;;;;;;;13.60;99.90;;;;;;4954678;28;19934;-79
2023/05/15 13:50:51;;;;;;;;;;;13.60;99.90;;;;;;4955490;28;19927;-78
2023/05/15 13:53:20;;;;;;;;;;;13.60;99.90;;;;;;4954564;28;19941;-79
2023/05/15 13:55:48;;;;;;;;;;;13.60;99.90;;;;;;4958513;28;19926;-79
2023/05/15 13:58:16;;;;;;;;;;;13.60;99.90;;;;;;4956709;28;19935;-76
2023/05/15 14:00:44;;;;;;;;;;;13.60;99.90;;;;;;4955152;28;19931;-79
2023/05/15 14:03:12;;;;;;;;;;;13.60;99.90;;;;;;4956292;28;19997;-79
2023/05/15 14:05:41;;;;;;;;;;;13.60;99.90;;;;;;4953185;28;19998;-79
2023/05/15 14:08:10;;;;;;;;;;;13.60;99.90;;;;;;4952333;29;19954;-78
2023/05/15 14:10:43;;;;;;;;;;;13.60;99.90;;;;;;4954579;28;19930;-79
2023/05/15 14:13:10;;;;;;;;;;;13.60;99.90;;;;;;4953194;29;19926;-78
2023/05/15 14:15:39;;;;;;;;;;;13.70;99.90;;;;;;4950799;29;19965;-78
2023/05/15 14:18:06;;;;;;;;;;;13.70;99.90;;;;;;4950372;28;20037;-79
2023/05/15 14:20:33;;;;;;;;;;;13.70;99.90;;;;;;4956810;28;20024;-79
2023/05/15 14:23:02;;;;;;;;;;;13.80;99.90;;;;;;4954800;28;19949;-79
2023/05/15 14:25:30;;;;;;;;;;;13.80;99.90;;;;;;4955282;28;20376;-78